Flag for USA

Past Weather in 47°23'27.8"N, 122°15'14.7"W, USA — Yesterday and Last 2 Weeks

Currently: 51 °F. Broken clouds. (Weather station: Seattle Boeing Field, USA). See more current weather

Past Weather in 47°23'27.8"N, 122°15'14.7"W — Graph

°F

47°23'27.8"N, 122°15'14.7"W Temperature Yesterday

Maximum temperature yesterday: 54 °F (at 2:53 pm)
Minimum temperature yesterday: 46 °F (at 6:53 am)
Average temperature yesterday: 50 °F

High & Low Weather Summary for the Past Weeks

 TemperatureHumidityPressure
High67 °F (Apr 2, 4:53 pm)90% (Apr 6, 8:53 pm)30.37 "Hg (Apr 6, 8:53 pm)
Low42 °F (Apr 8, 4:53 am)28% (Apr 14, 2:53 pm)29.76 "Hg (Apr 5, 1:53 am)
Average50 °F69%30.08 "Hg
* Reported Apr 1 12:00 pm — Apr 16 11:53 am, 47°23'27.8"N, 122°15'14.7"W. Weather by CustomWeather, © 2024

Note: Actual official high and low records may vary slightly from our data, if they occured in-between our weather recording intervals... More about our weather records

47°23'27.8"N, 122°15'14.7"W Weather History for the Previous 24 Hours

Scroll right to see more
 ConditionsComfort  
Time TempWeatherWind HumidityBarometerVisibility
11:53 am
Tue, Apr 16
49 °FPartly sunny.5 mph61%30.35 "Hg10 mi
10:53 am47 °FPartly sunny.No wind64%30.36 "Hg10 mi
9:53 am47 °FPassing clouds.6 mph71%30.37 "Hg10 mi
8:53 am45 °FPassing clouds.6 mph76%30.36 "Hg10 mi
7:53 am44 °FScattered clouds.6 mph76%30.35 "Hg10 mi
6:53 am42 °FPartly sunny.7 mph79%30.35 "Hg10 mi
5:53 am43 °FOvercast.5 mph76%30.34 "Hg10 mi
4:53 am43 °FMostly cloudy.5 mph76%30.35 "Hg10 mi
4:38 am42 °FLight rain. Overcast.6 mph82%30.35 "Hg10 mi
3:53 am42 °FLight rain. Mostly cloudy.5 mph79%30.35 "Hg6 mi
3:33 am42 °FMostly cloudy.9 mph79%30.35 "Hg10 mi
3:17 am42 °FOvercast.8 mph79%30.35 "Hg10 mi
2:53 am43 °FOvercast.7 mph76%30.35 "Hg10 mi
1:53 am45 °FOvercast.6 mph68%30.33 "Hg10 mi
12:53 am46 °FOvercast.6 mph68%30.33 "Hg10 mi
11:53 pm
Mon, Apr 15
47 °FOvercast.7 mph64%30.32 "Hg10 mi
10:53 pm48 °FOvercast.7 mph63%30.32 "Hg10 mi
9:53 pm48 °FOvercast.7 mph66%30.31 "Hg10 mi
8:53 pm50 °FOvercast.8 mph57%30.29 "Hg10 mi
7:53 pm50 °FOvercast.8 mph54%30.27 "Hg10 mi
6:53 pm51 °FCloudy.8 mph54%30.26 "Hg10 mi
5:53 pm52 °FPartly sunny.7 mph61%30.26 "Hg10 mi
4:53 pm54 °FPartly sunny.7 mph59%30.24 "Hg10 mi
3:53 pm54 °FPartly sunny.7 mph59%30.25 "Hg10 mi
2:53 pm54 °FPartly sunny.6 mph62%30.25 "Hg10 mi
1:53 pm53 °FOvercast.3 mph66%30.26 "Hg10 mi
Weather by CustomWeather, © 2024

See weather overview